Pays
Station

 

Conditions  météo  pour  Rio Cuarto Aerodrome  -  Argentine    Argentine

  
22 °C
    
 
 

METAR pour Rio Cuarto Aerodrome :

SAOC 142300Z 00000KT CAVOK 22/07 Q1009

 

Voici le bulletin pour Rio Cuarto Aerodrome - Argentine.
 
Le bulletin a été fait il y a 49 minutes, à 23:00 UTC .
Le vent était calme.
 
La température était de 22 °C, avec un point de rosée à 7 °C.
La température ressentie était de 25 °C.
 
La pression atmosphérique était de 1009 hPa.
L'humidité relative était de 37.9%.
 
Il y avait pas de nuages en-dessous de 1500 mètres et pas de cumulonimbus.
 
La visibilité globale était de supérieure à 10 kilomètres.
 

 
 
 

Pays :   A   B   C   D   E   F   G   H   I   J   K   L   M   N   O   P   Q   R   S   T   U   V   W   Y   Z

 

Partenaires :  Info Météo avec Met'info
Météo Marine avec MeteoMarine.net
Infos Site  |  Infos Légales  |  Crédits  |  Confidentialité
Contactez-nous  |  Ajouter aux favoris
© 2013-2018 METAR - Tous droits réservés